WetterOnline ( https://www.wetteronline.de )

Wetter aktuell Feldberg

Aktuelles Wetter: Feldberg/Schwarzwald (1493m)

6-stündlich | Neueste Meldungen
Ortszeit Temperatur Wetter
Mi, 25.05. 20:00 9.6° C leicht bewölkt
Mi, 25.05. 14:00 8.3° C bewölkt
Mi, 25.05. 8:00 5.4° C bewölkt
Mi, 25.05. 2:00 5.6° C bedeckt
Di, 24.05. 20:00 6.6° C bewölkt
Di, 24.05. 14:00 6.5° C wolkig
Di, 24.05. 8:00 6.4° C starker Regen
Di, 24.05. 2:00 7.9° C Nebel
Ortszeit Temperatur Wetter
Do, 26.05. 1:00 6.7° C bedeckt
Do, 26.05. 0:40 6.9° C bewölkt
Do, 26.05. 0:30 7.0° C leicht bewölkt
Do, 26.05. 0:20 7.0° C leicht bewölkt
Do, 26.05. 0:10 7.0° C leicht bewölkt
Do, 26.05. 0:00 7.0° C bewölkt
Mi, 25.05. 23:50 7.0° C bewölkt
Mi, 25.05. 23:30 7.0° C bewölkt
Mi, 25.05. 23:00 7.3° C wolkig
Mi, 25.05. 22:30 7.6° C wolkig
Mi, 25.05. 22:00 7.9° C leicht bewölkt
Ortszeit Relative Feuchte Sichtweite
Mi, 25.05. 20:00 60% >70 km
Mi, 25.05. 14:00 70% 50 km
Mi, 25.05. 8:00 88% 60 km
Mi, 25.05. 2:00 86% 65 km
Di, 24.05. 20:00 74% 65 km
Di, 24.05. 14:00 77% 65 km
Di, 24.05. 8:00 100% <100 m
Di, 24.05. 2:00 100% 100 m
Ortszeit Relative Feuchte Sichtweite
Do, 26.05. 1:00 77% >70 km
Do, 26.05. 0:40 75% -
Do, 26.05. 0:30 76% 60 km
Do, 26.05. 0:20 76% -
Do, 26.05. 0:10 76% -
Do, 26.05. 0:00 75% >70 km
Mi, 25.05. 23:50 75% -
Mi, 25.05. 23:30 75% 65 km
Mi, 25.05. 23:00 75% >70 km
Mi, 25.05. 22:30 74% 65 km
Mi, 25.05. 22:00 73% 65 km
Ortszeit Niederschlagsmenge Niederschlagsart
Mi, 25.05. 20:00 0.0 l/m2 in 12 Std. -
Mi, 25.05. 14:00 0.0 l/m2 in 6 Std. -
Mi, 25.05. 8:00 0.1 l/m2 in 12 Std. Regen
Mi, 25.05. 2:00 0.0 l/m2 in 6 Std. -
Di, 24.05. 20:00 0.4 l/m2 in 12 Std. -
Di, 24.05. 14:00 0.4 l/m2 in 6 Std. Schnee, Regen
Di, 24.05. 8:00 1 l/m2 in 12 Std. Regen
Di, 24.05. 2:00 0.1 l/m2 in 6 Std. Regen, Niederschlag
Ortszeit Niederschlagsmenge Niederschlagsart
Do, 26.05. 1:00 0.0 l/m2 in 1 Std. -
Do, 26.05. 0:40 keine Meldung -
Do, 26.05. 0:30 0.0 l/m2 in 1 Std. -
Do, 26.05. 0:20 keine Meldung -
Do, 26.05. 0:10 keine Meldung -
Do, 26.05. 0:00 0.0 l/m2 in 1 Std. -
Mi, 25.05. 23:50 keine Meldung -
Mi, 25.05. 23:30 0.0 l/m2 in 1 Std. -
Mi, 25.05. 23:00 0.0 l/m2 in 1 Std. -
Mi, 25.05. 22:30 0.0 l/m2 in 1 Std. -
Mi, 25.05. 22:00 0.0 l/m2 in 1 Std. -
Ortszeit Stärke Spitze Richtung
km/h Bft. km/h Grad Sektor
Mi, 25.05. 20:00 24 4 35 270° W
Mi, 25.05. 14:00 14 3 29 300° NW
Mi, 25.05. 8:00 4 1 14 210° SW
Mi, 25.05. 2:00 11 2 30 330° NW
Di, 24.05. 20:00 13 3 48 240° SW
Di, 24.05. 14:00 28 4 72 260° W
Di, 24.05. 8:00 36 5 65 250° W
Di, 24.05. 2:00 31 5 83 250° W
Ortszeit Stärke Spitze Richtung
km/h Bft. km/h Grad Sektor
Do, 26.05. 1:00 28 4 33 260° W
Do, 26.05. 0:40 25 4 - 260° W
Do, 26.05. 0:30 22 4 25 260° W
Do, 26.05. 0:20 22 4 - 260° W
Do, 26.05. 0:10 19 3 - 270° W
Do, 26.05. 0:00 18 3 25 290° W
Mi, 25.05. 23:50 18 3 - 290° W
Mi, 25.05. 23:30 18 3 25 300° NW
Mi, 25.05. 23:00 18 3 29 300° NW
Mi, 25.05. 22:30 18 3 29 310° NW
Mi, 25.05. 22:00 22 4 35 320° NW
Ortszeit Untergrenze Bedeckung Gattung
total tief tief mittel hoch
Mi, 25.05. 20:00 8100 m 7/8 0/8 - - -
Mi, 25.05. 14:00 480 m 7/8 7/8 - - -
Mi, 25.05. 8:00 450 m 7/8 7/8 - - -
Mi, 25.05. 2:00 1500 m 8/8 8/8 - - -
Di, 24.05. 20:00 1260 m 7/8 7/8 - - -
Di, 24.05. 14:00 420 m 6/8 6/8 - - -
Di, 24.05. 8:00 <30 m 7/8 0/8 - - -
Di, 24.05. 2:00 <30 m 7/8 0/8 - - -
Ortszeit Bedeckungsgrad in Achtel und Wolkenuntergrenze
Do, 26.05. 1:00 8(6300m) 8(7800m)
Do, 26.05. 0:40 7
Do, 26.05. 0:30 4(6900m)
Do, 26.05. 0:20 4(6900m)
Do, 26.05. 0:10 4
Do, 26.05. 0:00 7(6600m) 8(7500m)
Mi, 25.05. 23:50 7(6600m) 8(7500m)
Mi, 25.05. 23:30 7(6900m) 8(9000m)
Mi, 25.05. 23:00 1(6600m) 5(8400m) 8(9000m)
Mi, 25.05. 22:30 1(7200m) 8(8700m)
Mi, 25.05. 22:00 6(7500m) 6(9000m)
Ortszeit Stationsdruck (hPa) Tendenz (hPa in 3 Std.)
Mi, 25.05. 20:00 854 + 0,9
Mi, 25.05. 14:00 852 + 0,9
Mi, 25.05. 8:00 850 + 1,5
Mi, 25.05. 2:00 848 + 0,4
Di, 24.05. 20:00 846 + 0,7
Di, 24.05. 14:00 845 + 1,0
Di, 24.05. 8:00 843 + 0,8
Di, 24.05. 2:00 843 0,0
Ortszeit Stationsdruck (hPa) Tendenz (hPa in 3 Std.)
Do, 26.05. 1:00 856 + 0,9
Do, 26.05. 0:40 856 keine Meldung
Do, 26.05. 0:30 856 + 1,2
Do, 26.05. 0:20 856 keine Meldung
Do, 26.05. 0:10 856 keine Meldung
Do, 26.05. 0:00 856 + 1,6
Mi, 25.05. 23:50 856 keine Meldung
Mi, 25.05. 23:30 856 + 1,8
Mi, 25.05. 23:00 855 + 1,7
Mi, 25.05. 22:30 855 + 1,8
Mi, 25.05. 22:00 855 + 1,7
Ortszeit Schneehöhe (cm)
Mi, 25.05. 20:00 0
Mi, 25.05. 14:00 0
Mi, 25.05. 8:00 0
Mi, 25.05. 2:00 0
Di, 24.05. 20:00 0
Di, 24.05. 14:00 0
Di, 24.05. 8:00 0
Di, 24.05. 2:00 0
Ortszeit Schneehöhe (cm)
Do, 26.05. 1:00 0
Do, 26.05. 0:40 0
Do, 26.05. 0:30 0
Do, 26.05. 0:20 0
Do, 26.05. 0:10 0
Do, 26.05. 0:00 0
Mi, 25.05. 23:50 0
Mi, 25.05. 23:30 0
Mi, 25.05. 23:00 0
Mi, 25.05. 22:30 0
Mi, 25.05. 22:00 0
Link zu dieser Seite / Seite empfehlen

Das Wetter in ...